sensor_id;sensor_type;location;lat;lon;timestamp;pressure;altitude;pressure_sealevel;temperature;humidity
64683;BME280;51107;47.652;19.016;2022-09-09T00:00:55;99601.16;;;16.36;100.00
64683;BME280;51107;47.652;19.016;2022-09-09T00:06:21;99608.44;;;16.34;100.00
64683;BME280;51107;47.652;19.016;2022-09-09T00:09:43;99597.34;;;16.38;100.00
64683;BME280;51107;47.652;19.016;2022-09-09T00:11:58;99598.78;;;16.41;100.00
64683;BME280;51107;47.652;19.016;2022-09-09T00:17:59;99590.06;;;16.40;100.00
64683;BME280;51107;47.652;19.016;2022-09-09T00:23:25;99591.94;;;16.46;100.00
64683;BME280;51107;47.652;19.016;2022-09-09T00:26:32;99602.66;;;16.45;100.00
64683;BME280;51107;47.652;19.016;2022-09-09T00:31:41;99585.69;;;16.47;100.00
64683;BME280;51107;47.652;19.016;2022-09-09T00:34:18;99583.66;;;16.50;100.00
64683;BME280;51107;47.652;19.016;2022-09-09T00:36:49;99582.06;;;16.55;100.00
64683;BME280;51107;47.652;19.016;2022-09-09T00:39:44;99583.03;;;16.47;100.00
64683;BME280;51107;47.652;19.016;2022-09-09T00:42:17;99591.72;;;16.48;100.00
64683;BME280;51107;47.652;19.016;2022-09-09T00:47:51;99598.69;;;16.27;100.00
64683;BME280;51107;47.652;19.016;2022-09-09T01:01:34;99623.25;;;16.13;100.00
64683;BME280;51107;47.652;19.016;2022-09-09T01:04:10;99619.41;;;16.16;100.00
64683;BME280;51107;47.652;19.016;2022-09-09T01:06:40;99619.72;;;16.27;100.00
64683;BME280;51107;47.652;19.016;2022-09-09T01:09:32;99623.62;;;16.38;100.00
64683;BME280;51107;47.652;19.016;2022-09-09T01:12:11;99618.50;;;16.30;100.00
64683;BME280;51107;47.652;19.016;2022-09-09T01:21:08;99627.75;;;16.19;100.00
64683;BME280;51107;47.652;19.016;2022-09-09T01:23:56;99622.88;;;16.16;100.00
64683;BME280;51107;47.652;19.016;2022-09-09T01:26:43;99629.91;;;16.16;100.00
64683;BME280;51107;47.652;19.016;2022-09-09T01:29:15;99623.25;;;16.13;100.00
64683;BME280;51107;47.652;19.016;2022-09-09T01:31:58;99613.28;;;16.08;100.00
64683;BME280;51107;47.652;19.016;2022-09-09T01:34:33;99626.50;;;16.15;100.00
64683;BME280;51107;47.652;19.016;2022-09-09T01:37:09;99626.63;;;16.07;100.00
64683;BME280;51107;47.652;19.016;2022-09-09T01:39:40;99625.06;;;16.12;100.00
64683;BME280;51107;47.652;19.016;2022-09-09T01:42:13;99624.62;;;16.09;100.00
64683;BME280;51107;47.652;19.016;2022-09-09T01:44:43;99622.88;;;16.16;100.00
64683;BME280;51107;47.652;19.016;2022-09-09T01:47:13;99619.84;;;16.19;100.00
64683;BME280;51107;47.652;19.016;2022-09-09T01:49:44;99621.69;;;16.19;100.00
64683;BME280;51107;47.652;19.016;2022-09-09T01:52:14;99607.72;;;16.18;100.00
64683;BME280;51107;47.652;19.016;2022-09-09T01:54:42;99610.06;;;16.06;100.00
64683;BME280;51107;47.652;19.016;2022-09-09T01:57:19;99622.56;;;16.04;100.00
64683;BME280;51107;47.652;19.016;2022-09-09T02:00:06;99619.47;;;15.94;100.00
64683;BME280;51107;47.652;19.016;2022-09-09T02:03:00;99616.19;;;15.92;100.00
64683;BME280;51107;47.652;19.016;2022-09-09T02:05:41;99616.38;;;15.90;100.00
64683;BME280;51107;47.652;19.016;2022-09-09T02:08:24;99614.94;;;15.88;100.00
64683;BME280;51107;47.652;19.016;2022-09-09T02:11:00;99598.97;;;15.83;100.00
64683;BME280;51107;47.652;19.016;2022-09-09T02:13:32;99609.63;;;15.81;100.00
64683;BME280;51107;47.652;19.016;2022-09-09T02:16:21;99621.38;;;15.85;100.00
64683;BME280;51107;47.652;19.016;2022-09-09T02:21:30;99632.16;;;15.90;100.00
64683;BME280;51107;47.652;19.016;2022-09-09T02:24:02;99630.31;;;15.91;100.00
64683;BME280;51107;47.652;19.016;2022-09-09T02:26:34;99625.78;;;16.00;100.00
64683;BME280;51107;47.652;19.016;2022-09-09T02:29:12;99622.75;;;16.03;100.00
64683;BME280;51107;47.652;19.016;2022-09-09T02:31:44;99618.88;;;15.99;100.00
64683;BME280;51107;47.652;19.016;2022-09-09T02:34:15;99615.13;;;16.08;100.00
64683;BME280;51107;47.652;19.016;2022-09-09T02:36:47;99625.25;;;16.11;100.00
64683;BME280;51107;47.652;19.016;2022-09-09T02:39:16;99627.44;;;16.07;100.00
64683;BME280;51107;47.652;19.016;2022-09-09T02:41:45;99630.69;;;16.09;100.00
64683;BME280;51107;47.652;19.016;2022-09-09T02:44:16;99627.06;;;16.10;100.00
64683;BME280;51107;47.652;19.016;2022-09-09T02:47:00;99630.63;;;16.03;100.00
64683;BME280;51107;47.652;19.016;2022-09-09T02:52:14;99633.47;;;16.01;100.00
64683;BME280;51107;47.652;19.016;2022-09-09T02:54:45;99636.16;;;16.08;100.00
64683;BME280;51107;47.652;19.016;2022-09-09T02:57:19;99637.78;;;16.09;100.00
64683;BME280;51107;47.652;19.016;2022-09-09T02:59:49;99630.69;;;16.09;100.00
64683;BME280;51107;47.652;19.016;2022-09-09T03:02:19;99631.28;;;16.05;100.00
64683;BME280;51107;47.652;19.016;2022-09-09T03:04:48;99630.25;;;16.06;100.00
64683;BME280;51107;47.652;19.016;2022-09-09T03:07:20;99631.69;;;15.87;100.00
64683;BME280;51107;47.652;19.016;2022-09-09T03:09:49;99637.66;;;15.95;100.00
64683;BME280;51107;47.652;19.016;2022-09-09T03:12:17;99627.75;;;15.98;100.00
64683;BME280;51107;47.652;19.016;2022-09-09T03:14:46;99624.34;;;15.97;100.00
64683;BME280;51107;47.652;19.016;2022-09-09T03:17:14;99629.78;;;15.95;100.00
64683;BME280;51107;47.652;19.016;2022-09-09T03:19:43;99620.72;;;15.98;100.00
64683;BME280;51107;47.652;19.016;2022-09-09T03:22:12;99635.50;;;16.06;100.00
64683;BME280;51107;47.652;19.016;2022-09-09T03:24:41;99634.06;;;16.03;100.00
64683;BME280;51107;47.652;19.016;2022-09-09T03:27:09;99631.81;;;16.00;100.00
64683;BME280;51107;47.652;19.016;2022-09-09T03:29:39;99638.28;;;15.98;100.00
64683;BME280;51107;47.652;19.016;2022-09-09T03:32:07;99637.66;;;15.95;100.00
64683;BME280;51107;47.652;19.016;2022-09-09T03:34:38;99618.88;;;15.99;100.00
64683;BME280;51107;47.652;19.016;2022-09-09T03:37:10;99629.84;;;16.02;100.00
64683;BME280;51107;47.652;19.016;2022-09-09T03:39:40;99629.66;;;16.04;100.00
64683;BME280;51107;47.652;19.016;2022-09-09T03:42:08;99628.22;;;16.01;100.00
64683;BME280;51107;47.652;19.016;2022-09-09T03:44:37;99634.19;;;15.95;100.00
64683;BME280;51107;47.652;19.016;2022-09-09T03:47:06;99635.28;;;16.01;100.00
64683;BME280;51107;47.652;19.016;2022-09-09T03:49:35;99630.25;;;16.06;100.00
64683;BME280;51107;47.652;19.016;2022-09-09T03:52:04;99640.91;;;15.98;100.00
64683;BME280;51107;47.652;19.016;2022-09-09T03:54:33;99635.41;;;15.92;100.00
64683;BME280;51107;47.652;19.016;2022-09-09T03:57:02;99634.03;;;15.96;100.00
64683;BME280;51107;47.652;19.016;2022-09-09T03:59:30;99635.09;;;16.02;100.00
64683;BME280;51107;47.652;19.016;2022-09-09T04:01:59;99646.84;;;15.85;100.00
64683;BME280;51107;47.652;19.016;2022-09-09T04:04:28;99648.97;;;15.74;100.00
64683;BME280;51107;47.652;19.016;2022-09-09T04:06:56;99648.88;;;15.83;100.00
64683;BME280;51107;47.652;19.016;2022-09-09T04:09:24;99640.34;;;15.81;100.00
64683;BME280;51107;47.652;19.016;2022-09-09T04:11:53;99640.50;;;15.57;100.00
64683;BME280;51107;47.652;19.016;2022-09-09T04:14:21;99635.13;;;15.66;100.00
64683;BME280;51107;47.652;19.016;2022-09-09T04:16:50;99634.13;;;15.67;100.00
64683;BME280;51107;47.652;19.016;2022-09-09T04:19:18;99640.75;;;15.62;100.00
64683;BME280;51107;47.652;19.016;2022-09-09T04:21:47;99650.00;;;15.58;100.00
64683;BME280;51107;47.652;19.016;2022-09-09T04:24:20;99652.63;;;15.58;100.00
64683;BME280;51107;47.652;19.016;2022-09-09T04:26:50;99654.50;;;15.65;100.00
64683;BME280;51107;47.652;19.016;2022-09-09T04:29:18;99664.50;;;15.54;100.00
64683;BME280;51107;47.652;19.016;2022-09-09T04:31:46;99664.28;;;15.71;100.00
64683;BME280;51107;47.652;19.016;2022-09-09T04:34:15;99658.22;;;15.70;100.00
64683;BME280;51107;47.652;19.016;2022-09-09T04:36:43;99663.69;;;15.75;100.00
64683;BME280;51107;47.652;19.016;2022-09-09T04:39:11;99657.37;;;15.85;100.00
64683;BME280;51107;47.652;19.016;2022-09-09T04:41:40;99667.47;;;15.88;100.00
64683;BME280;51107;47.652;19.016;2022-09-09T04:44:09;99663.41;;;15.85;100.00
64683;BME280;51107;47.652;19.016;2022-09-09T04:46:38;99662.03;;;15.89;100.00
64683;BME280;51107;47.652;19.016;2022-09-09T04:49:07;99667.28;;;15.89;100.00
64683;BME280;51107;47.652;19.016;2022-09-09T04:51:43;99663.53;;;15.99;100.00
64683;BME280;51107;47.652;19.016;2022-09-09T04:54:11;99660.66;;;16.15;100.00
64683;BME280;51107;47.652;19.016;2022-09-09T04:56:40;99661.84;;;16.12;100.00
64683;BME280;51107;47.652;19.016;2022-09-09T04:59:11;99666.03;;;16.28;98.11
64683;BME280;51107;47.652;19.016;2022-09-09T05:01:39;99659.28;;;16.19;100.00
64683;BME280;51107;47.652;19.016;2022-09-09T05:04:08;99659.34;;;16.26;100.00
64683;BME280;51107;47.652;19.016;2022-09-09T05:06:39;99660.56;;;16.30;100.00
64683;BME280;51107;47.652;19.016;2022-09-09T05:09:08;99666.63;;;16.30;100.00
64683;BME280;51107;47.652;19.016;2022-09-09T05:11:37;99671.75;;;16.39;100.00
64683;BME280;51107;47.652;19.016;2022-09-09T05:14:06;99677.19;;;16.37;100.00
64683;BME280;51107;47.652;19.016;2022-09-09T05:16:35;99678.59;;;16.33;100.00
64683;BME280;51107;47.652;19.016;2022-09-09T05:19:04;99687.09;;;16.35;100.00
64683;BME280;51107;47.652;19.016;2022-09-09T05:21:34;99682.22;;;16.32;100.00
64683;BME280;51107;47.652;19.016;2022-09-09T05:24:02;99683.09;;;16.39;100.00
64683;BME280;51107;47.652;19.016;2022-09-09T05:26:31;99689.53;;;16.37;100.00
64683;BME280;51107;47.652;19.016;2022-09-09T05:29:00;99688.81;;;16.50;100.00
64683;BME280;51107;47.652;19.016;2022-09-09T05:31:30;99692.09;;;16.52;100.00
64683;BME280;51107;47.652;19.016;2022-09-09T05:34:00;99689.47;;;16.58;100.00
64683;BME280;51107;47.652;19.016;2022-09-09T05:36:28;99693.78;;;16.66;100.00
64683;BME280;51107;47.652;19.016;2022-09-09T05:38:57;99687.53;;;16.67;100.00
64683;BME280;51107;47.652;19.016;2022-09-09T05:41:25;99681.44;;;16.67;100.00
64683;BME280;51107;47.652;19.016;2022-09-09T05:43:54;99676.06;;;16.81;100.00
64683;BME280;51107;47.652;19.016;2022-09-09T05:46:23;99679.16;;;16.85;100.00
64683;BME280;51107;47.652;19.016;2022-09-09T05:48:53;99670.97;;;17.02;100.00
64683;BME280;51107;47.652;19.016;2022-09-09T05:51:24;99663.66;;;17.04;100.00
64683;BME280;51107;47.652;19.016;2022-09-09T05:53:55;99663.66;;;17.04;100.00
64683;BME280;51107;47.652;19.016;2022-09-09T05:56:28;99675.69;;;17.20;100.00
64683;BME280;51107;47.652;19.016;2022-09-09T05:58:58;99670.78;;;17.10;98.68
64683;BME280;51107;47.652;19.016;2022-09-09T06:01:30;99674.91;;;17.26;100.00
64683;BME280;51107;47.652;19.016;2022-09-09T06:04:00;99669.84;;;17.31;98.17
64683;BME280;51107;47.652;19.016;2022-09-09T06:06:34;99676.31;;;17.28;96.38
64683;BME280;51107;47.652;19.016;2022-09-09T06:09:07;99673.16;;;17.40;100.00
64683;BME280;51107;47.652;19.016;2022-09-09T06:11:39;99671.72;;;17.37;98.70
64683;BME280;51107;47.652;19.016;2022-09-09T06:14:08;99674.56;;;17.49;98.80
64683;BME280;51107;47.652;19.016;2022-09-09T06:16:37;99686.13;;;17.55;98.61
64683;BME280;51107;47.652;19.016;2022-09-09T06:19:11;99671.19;;;17.69;100.00
64683;BME280;51107;47.652;19.016;2022-09-09T06:21:42;99684.38;;;17.82;97.83
64683;BME280;51107;47.652;19.016;2022-09-09T06:24:13;99680.13;;;17.88;96.33
64683;BME280;51107;47.652;19.016;2022-09-09T06:26:45;99688.72;;;17.96;94.90
64683;BME280;51107;47.652;19.016;2022-09-09T06:29:14;99694.56;;;17.98;95.48
64683;BME280;51107;47.652;19.016;2022-09-09T06:31:42;99697.22;;;17.98;92.46
64683;BME280;51107;47.652;19.016;2022-09-09T06:34:11;99693.38;;;18.08;95.00
64683;BME280;51107;47.652;19.016;2022-09-09T06:36:40;99706.56;;;18.21;95.51
64683;BME280;51107;47.652;19.016;2022-09-09T06:39:08;99701.47;;;18.26;93.75
64683;BME280;51107;47.652;19.016;2022-09-09T06:41:42;99703.53;;;18.24;91.80
64683;BME280;51107;47.652;19.016;2022-09-09T06:44:14;99702.91;;;18.29;91.11
64683;BME280;51107;47.652;19.016;2022-09-09T06:46:45;99700.47;;;18.41;92.52
64683;BME280;51107;47.652;19.016;2022-09-09T06:49:16;99696.00;;;18.34;89.73
64683;BME280;51107;47.652;19.016;2022-09-09T06:51:45;99701.28;;;18.41;91.19
64683;BME280;51107;47.652;19.016;2022-09-09T06:54:14;99702.28;;;18.54;90.40
64683;BME280;51107;47.652;19.016;2022-09-09T06:56:43;99715.69;;;18.59;87.74
64683;BME280;51107;47.652;19.016;2022-09-09T06:59:13;99698.84;;;18.66;90.10
64683;BME280;51107;47.652;19.016;2022-09-09T07:01:42;99705.72;;;18.61;86.50
64683;BME280;51107;47.652;19.016;2022-09-09T07:04:23;99702.88;;;18.69;89.58
64683;BME280;51107;47.652;19.016;2022-09-09T07:06:52;99712.22;;;18.65;87.57
64683;BME280;51107;47.652;19.016;2022-09-09T07:09:21;99710.41;;;18.59;85.12
64683;BME280;51107;47.652;19.016;2022-09-09T07:11:51;99716.09;;;18.62;87.07
64683;BME280;51107;47.652;19.016;2022-09-09T07:14:22;99714.47;;;18.61;88.86
64683;BME280;51107;47.652;19.016;2022-09-09T07:16:52;99720.16;;;18.58;86.44
64683;BME280;51107;47.652;19.016;2022-09-09T07:19:26;99718.09;;;18.74;88.04
64683;BME280;51107;47.652;19.016;2022-09-09T07:21:55;99717.28;;;18.93;85.90
64683;BME280;51107;47.652;19.016;2022-09-09T07:24:23;99712.13;;;19.18;84.93
64683;BME280;51107;47.652;19.016;2022-09-09T07:26:52;99716.44;;;19.58;85.75
64683;BME280;51107;47.652;19.016;2022-09-09T07:29:21;99715.59;;;19.64;83.68
64683;BME280;51107;47.652;19.016;2022-09-09T07:31:49;99708.22;;;19.73;82.20
64683;BME280;51107;47.652;19.016;2022-09-09T07:34:18;99708.81;;;20.14;81.46
64683;BME280;51107;47.652;19.016;2022-09-09T07:36:47;99713.97;;;20.27;76.50
64683;BME280;51107;47.652;19.016;2022-09-09T07:39:17;99718.13;;;20.67;75.76
64683;BME280;51107;47.652;19.016;2022-09-09T07:41:47;99724.53;;;21.21;78.59
64683;BME280;51107;47.652;19.016;2022-09-09T07:44:20;99723.84;;;21.45;72.61
64683;BME280;51107;47.652;19.016;2022-09-09T07:46:49;99729.97;;;21.76;73.40
64683;BME280;51107;47.652;19.016;2022-09-09T07:49:19;99728.03;;;21.83;70.94
64683;BME280;51107;47.652;19.016;2022-09-09T07:51:57;99721.38;;;22.46;69.78
64683;BME280;51107;47.652;19.016;2022-09-09T07:54:25;99727.56;;;22.28;68.63
64683;BME280;51107;47.652;19.016;2022-09-09T07:56:54;99723.81;;;22.36;68.30
64683;BME280;51107;47.652;19.016;2022-09-09T07:59:23;99722.06;;;22.65;67.78
64683;BME280;51107;47.652;19.016;2022-09-09T08:01:52;99721.00;;;22.31;68.33
64683;BME280;51107;47.652;19.016;2022-09-09T08:04:25;99719.47;;;23.18;66.05
64683;BME280;51107;47.652;19.016;2022-09-09T08:06:57;99726.69;;;22.82;64.53
64683;BME280;51107;47.652;19.016;2022-09-09T08:09:26;99727.44;;;23.18;63.40
64683;BME280;51107;47.652;19.016;2022-09-09T08:11:58;99727.44;;;23.58;62.10
64683;BME280;51107;47.652;19.016;2022-09-09T08:14:26;99719.59;;;23.81;63.08
64683;BME280;51107;47.652;19.016;2022-09-09T08:16:56;99727.56;;;23.64;63.18
64683;BME280;51107;47.652;19.016;2022-09-09T08:19:26;99723.62;;;24.12;60.41
64683;BME280;51107;47.652;19.016;2022-09-09T08:21:58;99733.53;;;24.17;62.33
64683;BME280;51107;47.652;19.016;2022-09-09T08:24:27;99722.78;;;24.12;63.03
64683;BME280;51107;47.652;19.016;2022-09-09T08:26:55;99722.56;;;24.47;63.90
64683;BME280;51107;47.652;19.016;2022-09-09T08:29:24;99717.59;;;25.12;58.89
64683;BME280;51107;47.652;19.016;2022-09-09T08:31:55;99714.13;;;25.34;58.71
64683;BME280;51107;47.652;19.016;2022-09-09T08:34:26;99715.84;;;24.79;57.66
64683;BME280;51107;47.652;19.016;2022-09-09T08:36:55;99709.66;;;25.39;58.48
64683;BME280;51107;47.652;19.016;2022-09-09T08:39:24;99709.16;;;25.20;59.56
64683;BME280;51107;47.652;19.016;2022-09-09T08:47:31;99709.03;;;25.82;55.10
64683;BME280;51107;47.652;19.016;2022-09-09T08:50:21;99707.66;;;26.44;48.10
64683;BME280;51107;47.652;19.016;2022-09-09T08:53:14;99711.63;;;26.41;50.49
64683;BME280;51107;47.652;19.016;2022-09-09T08:55:51;99716.44;;;26.87;52.36
64683;BME280;51107;47.652;19.016;2022-09-09T08:58:25;99716.03;;;27.11;56.22
64683;BME280;51107;47.652;19.016;2022-09-09T09:09:32;99715.97;;;27.74;54.44
64683;BME280;51107;47.652;19.016;2022-09-09T09:12:16;99721.03;;;27.81;52.94
64683;BME280;51107;47.652;19.016;2022-09-09T09:14:48;99709.19;;;27.41;53.19
64683;BME280;51107;47.652;19.016;2022-09-09T09:17:18;99715.16;;;27.84;52.50
64683;BME280;51107;47.652;19.016;2022-09-09T09:19:49;99727.63;;;26.74;51.98
64683;BME280;51107;47.652;19.016;2022-09-09T09:22:22;99724.78;;;27.65;53.43
64683;BME280;51107;47.652;19.016;2022-09-09T09:24:55;99722.97;;;26.59;56.18
64683;BME280;51107;47.652;19.016;2022-09-09T09:27:41;99718.87;;;27.68;53.91
64683;BME280;51107;47.652;19.016;2022-09-09T09:30:21;99726.34;;;27.55;50.59
64683;BME280;51107;47.652;19.016;2022-09-09T09:33:08;99711.94;;;27.87;52.73
64683;BME280;51107;47.652;19.016;2022-09-09T09:35:41;99715.44;;;28.19;51.50
64683;BME280;51107;47.652;19.016;2022-09-09T09:38:17;99710.06;;;28.34;50.66
64683;BME280;51107;47.652;19.016;2022-09-09T09:41:07;99707.38;;;28.39;50.21
64683;BME280;51107;47.652;19.016;2022-09-09T09:43:37;99706.81;;;28.58;49.29
64683;BME280;51107;47.652;19.016;2022-09-09T09:46:23;99713.31;;;28.05;50.65
64683;BME280;51107;47.652;19.016;2022-09-09T09:49:01;99704.91;;;28.74;49.15
64683;BME280;51107;47.652;19.016;2022-09-09T09:51:31;99698.75;;;28.53;51.30
64683;BME280;51107;47.652;19.016;2022-09-09T09:54:31;99694.50;;;28.41;47.59
64683;BME280;51107;47.652;19.016;2022-09-09T09:57:12;99696.41;;;28.41;47.70
64683;BME280;51107;47.652;19.016;2022-09-09T09:59:43;99696.63;;;28.50;52.22
64683;BME280;51107;47.652;19.016;2022-09-09T10:02:23;99704.97;;;27.86;47.04
64683;BME280;51107;47.652;19.016;2022-09-09T10:05:16;99709.53;;;27.91;47.88
64683;BME280;51107;47.652;19.016;2022-09-09T10:07:45;99709.53;;;26.86;47.67
64683;BME280;51107;47.652;19.016;2022-09-09T10:10:25;99708.09;;;26.73;48.64
64683;BME280;51107;47.652;19.016;2022-09-09T10:13:26;99705.00;;;28.02;47.24
64683;BME280;51107;47.652;19.016;2022-09-09T10:16:22;99712.47;;;27.79;48.14
64683;BME280;51107;47.652;19.016;2022-09-09T10:27:20;99701.19;;;27.46;47.89
64683;BME280;51107;47.652;19.016;2022-09-09T10:38:24;99694.97;;;27.25;49.15
64683;BME280;51107;47.652;19.016;2022-09-09T10:49:46;99708.47;;;28.33;46.26
64683;BME280;51107;47.652;19.016;2022-09-09T10:57:02;99701.50;;;28.32;41.23
64683;BME280;51107;47.652;19.016;2022-09-09T10:59:40;99695.28;;;28.57;40.49
64683;BME280;51107;47.652;19.016;2022-09-09T11:02:16;99690.59;;;29.04;36.86
64683;BME280;51107;47.652;19.016;2022-09-09T11:05:05;99693.56;;;28.92;35.83
64683;BME280;51107;47.652;19.016;2022-09-09T11:07:57;99699.09;;;28.15;40.21
64683;BME280;51107;47.652;19.016;2022-09-09T11:13:32;99697.78;;;28.28;38.37
64683;BME280;51107;47.652;19.016;2022-09-09T11:16:25;99702.75;;;28.76;41.36
64683;BME280;51107;47.652;19.016;2022-09-09T11:19:22;99686.69;;;28.60;40.20
64683;BME280;51107;47.652;19.016;2022-09-09T11:21:53;99692.69;;;28.01;39.22
64683;BME280;51107;47.652;19.016;2022-09-09T11:24:34;99694.28;;;28.07;37.19
64683;BME280;51107;47.652;19.016;2022-09-09T11:27:18;99691.62;;;28.07;37.30
64683;BME280;51107;47.652;19.016;2022-09-09T11:30:19;99693.41;;;27.44;44.83
64683;BME280;51107;47.652;19.016;2022-09-09T11:42:22;99683.66;;;27.07;41.78
64683;BME280;51107;47.652;19.016;2022-09-09T11:44:52;99686.59;;;27.06;43.48
64683;BME280;51107;47.652;19.016;2022-09-09T11:47:27;99686.13;;;26.66;43.67
64683;BME280;51107;47.652;19.016;2022-09-09T11:50:10;99679.72;;;26.67;47.48
64683;BME280;51107;47.652;19.016;2022-09-09T11:52:43;99673.53;;;26.14;44.91
64683;BME280;51107;47.652;19.016;2022-09-09T11:55:30;99657.37;;;25.38;46.66
64683;BME280;51107;47.652;19.016;2022-09-09T11:58:05;99657.44;;;25.21;49.10
64683;BME280;51107;47.652;19.016;2022-09-09T12:00:48;99664.84;;;25.36;46.78
64683;BME280;51107;47.652;19.016;2022-09-09T12:03:38;99662.19;;;25.36;46.10
64683;BME280;51107;47.652;19.016;2022-09-09T12:08:45;99652.69;;;25.51;50.21
64683;BME280;51107;47.652;19.016;2022-09-09T12:11:24;99655.53;;;25.66;46.84
64683;BME280;51107;47.652;19.016;2022-09-09T12:14:00;99665.50;;;25.49;44.83
64683;BME280;51107;47.652;19.016;2022-09-09T12:16:37;99661.34;;;25.36;44.01
64683;BME280;51107;47.652;19.016;2022-09-09T12:19:21;99664.53;;;25.33;46.48
64683;BME280;51107;47.652;19.016;2022-09-09T12:22:28;99669.03;;;25.32;44.97
64683;BME280;51107;47.652;19.016;2022-09-09T12:28:22;99665.56;;;25.59;45.80
64683;BME280;51107;47.652;19.016;2022-09-09T12:31:10;99668.34;;;25.42;42.87
64683;BME280;51107;47.652;19.016;2022-09-09T12:33:46;99661.16;;;25.20;46.90
64683;BME280;51107;47.652;19.016;2022-09-09T12:36:22;99648.75;;;25.31;46.50
64683;BME280;51107;47.652;19.016;2022-09-09T12:38:53;99656.06;;;25.41;46.36
64683;BME280;51107;47.652;19.016;2022-09-09T12:41:25;99656.91;;;25.41;46.34
64683;BME280;51107;47.652;19.016;2022-09-09T12:44:08;99651.19;;;25.33;45.69
64683;BME280;51107;47.652;19.016;2022-09-09T12:46:41;99644.56;;;25.35;48.45
64683;BME280;51107;47.652;19.016;2022-09-09T12:49:28;99641.81;;;25.30;50.60
64683;BME280;51107;47.652;19.016;2022-09-09T12:52:01;99651.09;;;25.27;46.10
64683;BME280;51107;47.652;19.016;2022-09-09T12:54:29;99639.09;;;25.25;45.40
64683;BME280;51107;47.652;19.016;2022-09-09T12:56:57;99643.34;;;25.21;46.70
64683;BME280;51107;47.652;19.016;2022-09-09T12:59:42;99639.41;;;25.29;46.27
64683;BME280;51107;47.652;19.016;2022-09-09T13:02:25;99631.72;;;25.32;45.45
64683;BME280;51107;47.652;19.016;2022-09-09T13:04:54;99634.75;;;25.19;46.72
64683;BME280;51107;47.652;19.016;2022-09-09T13:07:23;99624.34;;;25.17;47.26
64683;BME280;51107;47.652;19.016;2022-09-09T13:09:53;99618.03;;;25.01;42.81
64683;BME280;51107;47.652;19.016;2022-09-09T13:12:22;99614.41;;;25.07;44.89
64683;BME280;51107;47.652;19.016;2022-09-09T13:14:53;99607.44;;;25.06;45.92
64683;BME280;51107;47.652;19.016;2022-09-09T13:17:26;99603.56;;;24.92;44.24
64683;BME280;51107;47.652;19.016;2022-09-09T13:19:57;99599.00;;;25.15;47.74
64683;BME280;51107;47.652;19.016;2022-09-09T13:27:59;99601.47;;;24.94;48.43
64683;BME280;51107;47.652;19.016;2022-09-09T13:36:02;99587.09;;;24.73;48.83
64683;BME280;51107;47.652;19.016;2022-09-09T13:38:38;99587.78;;;24.85;47.78
64683;BME280;51107;47.652;19.016;2022-09-09T13:41:09;99591.41;;;25.01;46.70
64683;BME280;51107;47.652;19.016;2022-09-09T13:43:46;99594.56;;;24.98;45.93
64683;BME280;51107;47.652;19.016;2022-09-09T13:46:39;99598.09;;;25.04;44.60
64683;BME280;51107;47.652;19.016;2022-09-09T13:52:02;99592.47;;;25.00;46.05
64683;BME280;51107;47.652;19.016;2022-09-09T13:54:31;99590.94;;;25.09;47.82
64683;BME280;51107;47.652;19.016;2022-09-09T13:56:59;99587.28;;;25.16;46.42
64683;BME280;51107;47.652;19.016;2022-09-09T13:59:29;99583.66;;;25.27;48.42
64683;BME280;51107;47.652;19.016;2022-09-09T14:02:18;99578.06;;;25.29;48.92
64683;BME280;51107;47.652;19.016;2022-09-09T14:04:47;99564.41;;;25.20;45.63
64683;BME280;51107;47.652;19.016;2022-09-09T14:07:18;99569.59;;;25.04;44.53
64683;BME280;51107;47.652;19.016;2022-09-09T14:09:47;99569.69;;;25.15;44.89
64683;BME280;51107;47.652;19.016;2022-09-09T14:12:19;99570.53;;;25.20;46.82
64683;BME280;51107;47.652;19.016;2022-09-09T14:14:48;99569.19;;;25.45;40.98
64683;BME280;51107;47.652;19.016;2022-09-09T14:17:17;99562.06;;;25.56;42.66
64683;BME280;51107;47.652;19.016;2022-09-09T14:19:45;99560.91;;;25.41;43.24
64683;BME280;51107;47.652;19.016;2022-09-09T14:22:14;99555.38;;;25.53;43.34
64683;BME280;51107;47.652;19.016;2022-09-09T14:24:42;99559.09;;;25.52;42.67
64683;BME280;51107;47.652;19.016;2022-09-09T14:27:11;99548.75;;;25.56;42.15
64683;BME280;51107;47.652;19.016;2022-09-09T14:29:39;99546.75;;;25.41;41.33
64683;BME280;51107;47.652;19.016;2022-09-09T14:32:07;99548.75;;;25.29;42.77
64683;BME280;51107;47.652;19.016;2022-09-09T14:34:40;99547.12;;;25.27;43.05
64683;BME280;51107;47.652;19.016;2022-09-09T14:37:08;99547.00;;;25.12;41.07
64683;BME280;51107;47.652;19.016;2022-09-09T14:39:36;99544.09;;;25.14;41.54
64683;BME280;51107;47.652;19.016;2022-09-09T14:42:05;99542.94;;;25.04;41.67
64683;BME280;51107;47.652;19.016;2022-09-09T14:44:33;99548.69;;;24.91;42.14
64683;BME280;51107;47.652;19.016;2022-09-09T14:47:02;99548.56;;;24.81;41.78
64683;BME280;51107;47.652;19.016;2022-09-09T14:49:31;99540.81;;;24.79;41.92
64683;BME280;51107;47.652;19.016;2022-09-09T14:51:59;99534.69;;;24.79;42.76
64683;BME280;51107;47.652;19.016;2022-09-09T14:54:27;99537.22;;;24.68;44.17
64683;BME280;51107;47.652;19.016;2022-09-09T14:56:56;99544.94;;;24.65;44.30
64683;BME280;51107;47.652;19.016;2022-09-09T14:59:24;99533.72;;;24.63;44.56
64683;BME280;51107;47.652;19.016;2022-09-09T15:01:53;99542.09;;;24.54;43.51
64683;BME280;51107;47.652;19.016;2022-09-09T15:04:21;99544.78;;;24.54;42.73
64683;BME280;51107;47.652;19.016;2022-09-09T15:06:49;99540.81;;;24.57;42.89
64683;BME280;51107;47.652;19.016;2022-09-09T15:09:20;99541.84;;;24.56;44.19
64683;BME280;51107;47.652;19.016;2022-09-09T15:11:49;99546.38;;;24.55;45.04